sensor_id;sensor_type;location;lat;lon;timestamp;pressure;altitude;pressure_sealevel;temperature;humidity
35918;BME280;22011;59.912;30.300;2022-11-15T00:00:17;101788.72;;;4.87;74.54
35918;BME280;22011;59.912;30.300;2022-11-15T00:03:03;101785.13;;;4.88;74.38
35918;BME280;22011;59.912;30.300;2022-11-15T00:05:49;101782.69;;;4.85;74.07
35918;BME280;22011;59.912;30.300;2022-11-15T00:08:36;101767.72;;;4.85;74.42
35918;BME280;22011;59.912;30.300;2022-11-15T00:11:22;101752.06;;;4.82;74.43
35918;BME280;22011;59.912;30.300;2022-11-15T00:14:08;101758.00;;;4.86;74.86
35918;BME280;22011;59.912;30.300;2022-11-15T00:16:54;101760.53;;;4.87;74.47
35918;BME280;22011;59.912;30.300;2022-11-15T00:19:40;101748.69;;;4.93;73.96
35918;BME280;22011;59.912;30.300;2022-11-15T00:22:31;101737.50;;;5.02;74.35
35918;BME280;22011;59.912;30.300;2022-11-15T00:25:19;101735.38;;;4.95;74.34
35918;BME280;22011;59.912;30.300;2022-11-15T00:28:05;101728.63;;;4.90;74.38
35918;BME280;22011;59.912;30.300;2022-11-15T00:30:52;101725.47;;;4.85;74.11
35918;BME280;22011;59.912;30.300;2022-11-15T00:33:38;101716.78;;;4.83;74.35
35918;BME280;22011;59.912;30.300;2022-11-15T00:36:24;101713.19;;;4.84;74.65
35918;BME280;22011;59.912;30.300;2022-11-15T00:39:10;101697.34;;;4.84;74.78
35918;BME280;22011;59.912;30.300;2022-11-15T00:41:57;101699.91;;;4.86;74.52
35918;BME280;22011;59.912;30.300;2022-11-15T00:44:43;101688.69;;;4.82;74.57
35918;BME280;22011;59.912;30.300;2022-11-15T00:47:29;101690.50;;;4.82;74.89
35918;BME280;22011;59.912;30.300;2022-11-15T00:50:16;101677.41;;;4.80;73.90
35918;BME280;22011;59.912;30.300;2022-11-15T00:53:01;101666.94;;;4.79;73.40
35918;BME280;22011;59.912;30.300;2022-11-15T00:55:47;101658.91;;;4.80;74.22
35918;BME280;22011;59.912;30.300;2022-11-15T00:58:35;101649.84;;;4.84;74.47
35918;BME280;22011;59.912;30.300;2022-11-15T01:01:21;101644.03;;;4.79;74.31
35918;BME280;22011;59.912;30.300;2022-11-15T01:04:07;101637.38;;;4.74;74.15
35918;BME280;22011;59.912;30.300;2022-11-15T01:06:53;101635.91;;;4.70;74.60
35918;BME280;22011;59.912;30.300;2022-11-15T01:09:39;101628.41;;;4.64;74.39
35918;BME280;22011;59.912;30.300;2022-11-15T01:12:25;101630.09;;;4.65;74.67
35918;BME280;22011;59.912;30.300;2022-11-15T01:15:13;101625.97;;;4.60;74.31
35918;BME280;22011;59.912;30.300;2022-11-15T01:17:59;101624.91;;;4.50;74.19
35918;BME280;22011;59.912;30.300;2022-11-15T01:20:45;101616.25;;;4.48;74.50
35918;BME280;22011;59.912;30.300;2022-11-15T01:23:30;101607.59;;;4.46;74.54
35918;BME280;22011;59.912;30.300;2022-11-15T01:26:16;101602.13;;;4.49;74.80
35918;BME280;22011;59.912;30.300;2022-11-15T01:29:02;101601.06;;;4.52;74.68
35918;BME280;22011;59.912;30.300;2022-11-15T01:31:49;101594.72;;;4.54;74.49
35918;BME280;22011;59.912;30.300;2022-11-15T01:34:35;101598.41;;;4.52;74.33
35918;BME280;22011;59.912;30.300;2022-11-15T01:37:21;101599.59;;;4.48;73.98
35918;BME280;22011;59.912;30.300;2022-11-15T01:40:08;101598.09;;;4.44;74.64
35918;BME280;22011;59.912;30.300;2022-11-15T01:42:54;101591.34;;;4.40;74.38
35918;BME280;22011;59.912;30.300;2022-11-15T01:45:41;101589.13;;;4.34;74.47
35918;BME280;22011;59.912;30.300;2022-11-15T01:48:31;101580.59;;;4.43;75.46
35918;BME280;22011;59.912;30.300;2022-11-15T01:51:20;101572.88;;;4.40;74.98
35918;BME280;22011;59.912;30.300;2022-11-15T01:54:10;101564.75;;;4.43;73.87
35918;BME280;22011;59.912;30.300;2022-11-15T01:57:00;101564.97;;;4.40;73.95
35918;BME280;22011;59.912;30.300;2022-11-15T01:59:47;101564.44;;;4.35;74.57
35918;BME280;22011;59.912;30.300;2022-11-15T02:02:34;101553.13;;;4.33;74.38
35918;BME280;22011;59.912;30.300;2022-11-15T02:05:23;101544.91;;;4.37;74.00
35918;BME280;22011;59.912;30.300;2022-11-15T02:08:10;101534.34;;;4.37;74.42
35918;BME280;22011;59.912;30.300;2022-11-15T02:11:07;101519.91;;;4.30;74.40
35918;BME280;22011;59.912;30.300;2022-11-15T02:13:53;101518.09;;;4.31;73.65
35918;BME280;22011;59.912;30.300;2022-11-15T02:16:50;101510.69;;;4.48;74.29
35918;BME280;22011;59.912;30.300;2022-11-15T02:20:14;101500.03;;;4.63;75.34
35918;BME280;22011;59.912;30.300;2022-11-15T02:23:36;101507.09;;;4.62;75.47
35918;BME280;22011;59.912;30.300;2022-11-15T02:30:00;101495.06;;;4.58;74.99
35918;BME280;22011;59.912;30.300;2022-11-15T02:32:52;101492.97;;;4.50;74.90
35918;BME280;22011;59.912;30.300;2022-11-15T02:35:46;101483.25;;;4.51;74.79
35918;BME280;22011;59.912;30.300;2022-11-15T02:38:40;101478.72;;;4.53;75.08
35918;BME280;22011;59.912;30.300;2022-11-15T02:41:31;101476.28;;;4.50;75.11
35918;BME280;22011;59.912;30.300;2022-11-15T02:44:22;101464.56;;;4.54;74.73
35918;BME280;22011;59.912;30.300;2022-11-15T02:47:11;101465.94;;;4.59;74.92
35918;BME280;22011;59.912;30.300;2022-11-15T02:50:05;101466.66;;;4.62;74.74
35918;BME280;22011;59.912;30.300;2022-11-15T02:52:53;101455.91;;;4.52;74.41
35918;BME280;22011;59.912;30.300;2022-11-15T02:55:43;101449.13;;;4.60;75.04
35918;BME280;22011;59.912;30.300;2022-11-15T02:58:58;101445.63;;;4.73;75.18
35918;BME280;22011;59.912;30.300;2022-11-15T03:02:03;101442.06;;;4.61;74.28
35918;BME280;22011;59.912;30.300;2022-11-15T03:04:56;101442.53;;;4.42;74.04
35918;BME280;22011;59.912;30.300;2022-11-15T03:07:53;101436.94;;;4.47;74.60
35918;BME280;22011;59.912;30.300;2022-11-15T03:10:45;101430.72;;;4.35;74.77
35918;BME280;22011;59.912;30.300;2022-11-15T03:13:36;101423.34;;;4.27;74.89
35918;BME280;22011;59.912;30.300;2022-11-15T03:16:27;101418.28;;;4.24;75.13
35918;BME280;22011;59.912;30.300;2022-11-15T03:19:19;101413.03;;;4.24;74.78
35918;BME280;22011;59.912;30.300;2022-11-15T03:22:09;101413.03;;;4.24;75.06
35918;BME280;22011;59.912;30.300;2022-11-15T03:25:02;101396.53;;;4.34;75.31
35918;BME280;22011;59.912;30.300;2022-11-15T03:27:52;101398.44;;;4.32;75.08
35918;BME280;22011;59.912;30.300;2022-11-15T03:30:39;101391.47;;;4.31;75.11
35918;BME280;22011;59.912;30.300;2022-11-15T03:33:28;101380.94;;;4.31;74.67
35918;BME280;22011;59.912;30.300;2022-11-15T03:36:15;101378.28;;;4.31;74.66
35918;BME280;22011;59.912;30.300;2022-11-15T03:39:05;101377.84;;;4.37;75.11
35918;BME280;22011;59.912;30.300;2022-11-15T03:42:00;101379.31;;;4.41;75.21
35918;BME280;22011;59.912;30.300;2022-11-15T03:44:55;101379.31;;;4.41;75.13
35918;BME280;22011;59.912;30.300;2022-11-15T03:47:46;101375.22;;;4.37;75.23
35918;BME280;22011;59.912;30.300;2022-11-15T03:50:35;101367.22;;;4.25;73.97
35918;BME280;22011;59.912;30.300;2022-11-15T03:53:21;101374.41;;;4.23;74.06
35918;BME280;22011;59.912;30.300;2022-11-15T03:56:07;101371.03;;;4.21;74.43
35918;BME280;22011;59.912;30.300;2022-11-15T03:58:54;101369.34;;;4.20;75.06
35918;BME280;22011;59.912;30.300;2022-11-15T04:01:40;101374.69;;;4.08;74.37
35918;BME280;22011;59.912;30.300;2022-11-15T04:04:26;101373.84;;;4.07;74.81
35918;BME280;22011;59.912;30.300;2022-11-15T04:07:12;101364.56;;;4.02;74.68
35918;BME280;22011;59.912;30.300;2022-11-15T04:09:58;101364.66;;;4.00;74.44
35918;BME280;22011;59.912;30.300;2022-11-15T04:12:50;101369.63;;;4.05;74.80
35918;BME280;22011;59.912;30.300;2022-11-15T04:15:37;101358.13;;;4.06;74.72
35918;BME280;22011;59.912;30.300;2022-11-15T04:18:23;101364.56;;;4.02;74.84
35918;BME280;22011;59.912;30.300;2022-11-15T04:21:09;101366.34;;;4.01;75.07
35918;BME280;22011;59.912;30.300;2022-11-15T04:24:13;101356.53;;;4.03;75.27
35918;BME280;22011;59.912;30.300;2022-11-15T04:26:59;101356.66;;;4.02;74.87
35918;BME280;22011;59.912;30.300;2022-11-15T04:29:45;101356.66;;;4.02;74.44
35918;BME280;22011;59.912;30.300;2022-11-15T04:32:33;101347.47;;;4.07;74.37
35918;BME280;22011;59.912;30.300;2022-11-15T04:35:19;101340.63;;;4.05;74.51
35918;BME280;22011;59.912;30.300;2022-11-15T04:38:06;101336.41;;;4.02;74.87
35918;BME280;22011;59.912;30.300;2022-11-15T04:40:52;101334.81;;;4.00;74.81
35918;BME280;22011;59.912;30.300;2022-11-15T04:43:38;101335.66;;;4.00;74.95
35918;BME280;22011;59.912;30.300;2022-11-15T04:46:25;101339.25;;;3.99;75.14
35918;BME280;22011;59.912;30.300;2022-11-15T04:49:12;101329.97;;;4.06;75.47
35918;BME280;22011;59.912;30.300;2022-11-15T04:51:58;101330.06;;;4.05;74.82
35918;BME280;22011;59.912;30.300;2022-11-15T04:54:44;101326.38;;;4.07;74.54
35918;BME280;22011;59.912;30.300;2022-11-15T04:57:30;101316.88;;;4.05;75.37
35918;BME280;22011;59.912;30.300;2022-11-15T05:00:17;101326.59;;;4.04;74.95
35918;BME280;22011;59.912;30.300;2022-11-15T05:03:03;101324.91;;;4.03;74.74
35918;BME280;22011;59.912;30.300;2022-11-15T05:06:08;101322.16;;;4.05;74.92
35918;BME280;22011;59.912;30.300;2022-11-15T05:08:54;101316.25;;;4.01;75.12
35918;BME280;22011;59.912;30.300;2022-11-15T05:11:40;101314.47;;;4.02;74.52
35918;BME280;22011;59.912;30.300;2022-11-15T05:14:26;101319.00;;;4.00;74.80
35918;BME280;22011;59.912;30.300;2022-11-15T05:17:12;101313.00;;;3.98;74.85
35918;BME280;22011;59.912;30.300;2022-11-15T05:19:57;101314.47;;;4.02;74.68
35918;BME280;22011;59.912;30.300;2022-11-15T05:22:45;101315.81;;;4.07;75.02
35918;BME280;22011;59.912;30.300;2022-11-15T05:25:31;101308.97;;;4.05;74.74
35918;BME280;22011;59.912;30.300;2022-11-15T05:28:18;101310.78;;;4.04;74.77
35918;BME280;22011;59.912;30.300;2022-11-15T05:31:05;101311.38;;;4.08;75.01
35918;BME280;22011;59.912;30.300;2022-11-15T05:33:53;101309.28;;;4.13;74.92
35918;BME280;22011;59.912;30.300;2022-11-15T05:36:42;101310.22;;;4.12;75.37
35918;BME280;22011;59.912;30.300;2022-11-15T05:39:30;101306.53;;;4.14;74.99
35918;BME280;22011;59.912;30.300;2022-11-15T05:42:17;101311.28;;;4.09;74.96
35918;BME280;22011;59.912;30.300;2022-11-15T05:45:04;101301.47;;;4.11;75.12
35918;BME280;22011;59.912;30.300;2022-11-15T05:47:53;101296.19;;;4.11;74.91
35918;BME280;22011;59.912;30.300;2022-11-15T05:50:43;101297.75;;;4.14;75.24
35918;BME280;22011;59.912;30.300;2022-11-15T05:53:31;101296.75;;;4.04;74.96
35918;BME280;22011;59.912;30.300;2022-11-15T05:56:19;101298.44;;;4.05;75.04
35918;BME280;22011;59.912;30.300;2022-11-15T05:59:05;101302.75;;;4.06;74.97
35918;BME280;22011;59.912;30.300;2022-11-15T06:01:51;101297.25;;;4.09;75.04
35918;BME280;22011;59.912;30.300;2022-11-15T06:04:37;101300.50;;;4.12;74.97
35918;BME280;22011;59.912;30.300;2022-11-15T06:07:23;101308.19;;;4.15;74.96
35918;BME280;22011;59.912;30.300;2022-11-15T06:10:09;101309.16;;;4.14;75.13
35918;BME280;22011;59.912;30.300;2022-11-15T06:13:00;101307.50;;;4.24;75.20
35918;BME280;22011;59.912;30.300;2022-11-15T06:15:46;101307.59;;;4.12;74.92
35918;BME280;22011;59.912;30.300;2022-11-15T06:18:33;101304.94;;;4.12;74.46
35918;BME280;22011;59.912;30.300;2022-11-15T06:21:19;101305.06;;;4.10;74.71
35918;BME280;22011;59.912;30.300;2022-11-15T06:24:05;101309.59;;;4.08;74.64
35918;BME280;22011;59.912;30.300;2022-11-15T06:26:52;101303.38;;;4.09;74.96
35918;BME280;22011;59.912;30.300;2022-11-15T06:29:39;101304.09;;;4.11;75.11
35918;BME280;22011;59.912;30.300;2022-11-15T06:32:25;101307.69;;;4.10;75.08
35918;BME280;22011;59.912;30.300;2022-11-15T06:35:11;101313.22;;;4.18;74.34
35918;BME280;22011;59.912;30.300;2022-11-15T06:38:02;101312.97;;;4.34;74.63
35918;BME280;22011;59.912;30.300;2022-11-15T06:40:48;101306.66;;;4.24;74.76
35918;BME280;22011;59.912;30.300;2022-11-15T06:43:35;101307.63;;;4.23;73.85
35918;BME280;22011;59.912;30.300;2022-11-15T06:46:23;101310.75;;;4.28;74.91
35918;BME280;22011;59.912;30.300;2022-11-15T06:49:09;101310.88;;;4.26;74.00
35918;BME280;22011;59.912;30.300;2022-11-15T06:51:55;101309.19;;;4.25;74.43
35918;BME280;22011;59.912;30.300;2022-11-15T06:54:40;101310.88;;;4.26;73.39
35918;BME280;22011;59.912;30.300;2022-11-15T06:57:26;101309.81;;;4.29;74.20
35918;BME280;22011;59.912;30.300;2022-11-15T07:00:14;101314.59;;;4.24;74.35
35918;BME280;22011;59.912;30.300;2022-11-15T07:03:02;101315.94;;;4.30;73.92
35918;BME280;22011;59.912;30.300;2022-11-15T07:05:52;101307.69;;;4.34;74.61
35918;BME280;22011;59.912;30.300;2022-11-15T07:08:39;101316.78;;;4.30;73.29
35918;BME280;22011;59.912;30.300;2022-11-15T07:11:26;101316.88;;;4.28;73.70
35918;BME280;22011;59.912;30.300;2022-11-15T07:14:12;101316.16;;;4.26;73.99
35918;BME280;22011;59.912;30.300;2022-11-15T07:16:58;101313.50;;;4.26;74.17
35918;BME280;22011;59.912;30.300;2022-11-15T07:19:45;101314.69;;;4.22;74.52
35918;BME280;22011;59.912;30.300;2022-11-15T07:22:31;101312.50;;;4.16;74.60
35918;BME280;22011;59.912;30.300;2022-11-15T07:25:17;101317.78;;;4.16;74.65
35918;BME280;22011;59.912;30.300;2022-11-15T07:28:04;101321.38;;;4.15;74.61
35918;BME280;22011;59.912;30.300;2022-11-15T07:30:50;101329.31;;;4.15;74.91
35918;BME280;22011;59.912;30.300;2022-11-15T07:33:36;101324.97;;;4.14;74.68
35918;BME280;22011;59.912;30.300;2022-11-15T07:36:23;101326.41;;;4.18;75.23
35918;BME280;22011;59.912;30.300;2022-11-15T07:39:09;101326.66;;;4.15;75.29
35918;BME280;22011;59.912;30.300;2022-11-15T07:41:59;101322.09;;;4.17;74.74
35918;BME280;22011;59.912;30.300;2022-11-15T07:45:04;101323.78;;;4.18;74.69
35918;BME280;22011;59.912;30.300;2022-11-15T07:47:50;101319.97;;;4.22;74.90
35918;BME280;22011;59.912;30.300;2022-11-15T07:50:36;101317.84;;;4.27;74.40
35918;BME280;22011;59.912;30.300;2022-11-15T07:53:23;101329.63;;;4.35;74.83
35918;BME280;22011;59.912;30.300;2022-11-15T07:56:10;101325.94;;;4.37;73.32
35918;BME280;22011;59.912;30.300;2022-11-15T07:58:56;101329.41;;;4.38;73.14
35918;BME280;22011;59.912;30.300;2022-11-15T08:01:43;101332.56;;;4.43;73.17
35918;BME280;22011;59.912;30.300;2022-11-15T08:04:30;101328.97;;;4.44;73.03
35918;BME280;22011;59.912;30.300;2022-11-15T08:07:16;101323.25;;;4.50;72.56
35918;BME280;22011;59.912;30.300;2022-11-15T08:10:04;101324.91;;;4.51;73.11
35918;BME280;22011;59.912;30.300;2022-11-15T08:12:59;101323.91;;;4.65;73.12
35918;BME280;22011;59.912;30.300;2022-11-15T08:15:45;101325.88;;;4.50;72.07
35918;BME280;22011;59.912;30.300;2022-11-15T08:18:31;101331.56;;;4.56;72.57
35918;BME280;22011;59.912;30.300;2022-11-15T08:21:19;101335.97;;;4.56;73.26
35918;BME280;22011;59.912;30.300;2022-11-15T08:24:08;101337.06;;;4.53;72.74
35918;BME280;22011;59.912;30.300;2022-11-15T08:26:56;101335.75;;;4.59;72.36
35918;BME280;22011;59.912;30.300;2022-11-15T08:29:42;101338.00;;;4.52;72.41
35918;BME280;22011;59.912;30.300;2022-11-15T08:32:28;101336.09;;;4.54;72.41
35918;BME280;22011;59.912;30.300;2022-11-15T08:35:14;101335.03;;;4.57;73.19
35918;BME280;22011;59.912;30.300;2022-11-15T08:38:00;101339.25;;;4.59;72.67
35918;BME280;22011;59.912;30.300;2022-11-15T08:40:47;101334.91;;;4.58;72.99
35918;BME280;22011;59.912;30.300;2022-11-15T08:43:34;101343.44;;;4.62;73.17
35918;BME280;22011;59.912;30.300;2022-11-15T08:46:20;101333.50;;;4.66;72.44
35918;BME280;22011;59.912;30.300;2022-11-15T08:49:06;101335.09;;;4.68;71.98
35918;BME280;22011;59.912;30.300;2022-11-15T08:51:52;101337.50;;;4.71;71.59
35918;BME280;22011;59.912;30.300;2022-11-15T08:54:38;101335.94;;;4.69;71.77
35918;BME280;22011;59.912;30.300;2022-11-15T08:57:24;101345.88;;;4.65;72.53
35918;BME280;22011;59.912;30.300;2022-11-15T09:00:13;101349.97;;;4.69;72.62
35918;BME280;22011;59.912;30.300;2022-11-15T09:02:59;101349.47;;;4.64;71.82
35918;BME280;22011;59.912;30.300;2022-11-15T09:05:46;101353.66;;;4.67;71.09
35918;BME280;22011;59.912;30.300;2022-11-15T09:08:32;101349.97;;;4.69;71.83
35918;BME280;22011;59.912;30.300;2022-11-15T09:11:18;101348.06;;;4.71;71.34
35918;BME280;22011;59.912;30.300;2022-11-15T09:14:06;101346.16;;;4.73;71.13
35918;BME280;22011;59.912;30.300;2022-11-15T09:16:53;101347.81;;;4.74;71.63
35918;BME280;22011;59.912;30.300;2022-11-15T09:19:39;101352.38;;;4.72;71.41
35918;BME280;22011;59.912;30.300;2022-11-15T09:22:25;101343.63;;;4.72;71.53
35918;BME280;22011;59.912;30.300;2022-11-15T09:25:11;101343.63;;;4.72;71.32
35918;BME280;22011;59.912;30.300;2022-11-15T09:27:57;101351.44;;;4.73;71.80
35918;BME280;22011;59.912;30.300;2022-11-15T09:30:43;101346.75;;;4.77;71.44
35918;BME280;22011;59.912;30.300;2022-11-15T09:33:31;101343.16;;;4.78;71.81
35918;BME280;22011;59.912;30.300;2022-11-15T09:36:17;101347.81;;;4.74;71.64
35918;BME280;22011;59.912;30.300;2022-11-15T09:39:03;101345.31;;;4.73;72.12
35918;BME280;22011;59.912;30.300;2022-11-15T09:42:02;101347.88;;;4.85;72.57
35918;BME280;22011;59.912;30.300;2022-11-15T09:44:59;101351.97;;;4.89;72.79
35918;BME280;22011;59.912;30.300;2022-11-15T09:48:08;101350.81;;;5.05;72.15
35918;BME280;22011;59.912;30.300;2022-11-15T09:50:56;101355.81;;;4.85;71.05
35918;BME280;22011;59.912;30.300;2022-11-15T09:53:31;101360.25;;;4.85;71.10
35918;BME280;22011;59.912;30.300;2022-11-15T09:56:03;101361.75;;;4.76;70.87
35918;BME280;22011;59.912;30.300;2022-11-15T09:58:33;101358.19;;;5.12;71.31
35918;BME280;22011;59.912;30.300;2022-11-15T10:01:07;101355.19;;;4.82;71.11
35918;BME280;22011;59.912;30.300;2022-11-15T10:03:38;101359.13;;;4.76;71.35
35918;BME280;22011;59.912;30.300;2022-11-15T10:06:18;101371.63;;;4.85;72.06
35918;BME280;22011;59.912;30.300;2022-11-15T10:08:55;101367.66;;;4.80;71.81
35918;BME280;22011;59.912;30.300;2022-11-15T10:11:28;101368.44;;;4.69;71.27
35918;BME280;22011;59.912;30.300;2022-11-15T10:13:58;101373.38;;;4.74;71.08
35918;BME280;22011;59.912;30.300;2022-11-15T10:16:30;101374.25;;;5.09;71.25
35918;BME280;22011;59.912;30.300;2022-11-15T10:19:09;101371.88;;;4.82;71.56
35918;BME280;22011;59.912;30.300;2022-11-15T10:22:03;101371.41;;;4.88;71.20
35918;BME280;22011;59.912;30.300;2022-11-15T10:24:39;101376.06;;;4.85;70.46
35918;BME280;22011;59.912;30.300;2022-11-15T10:27:09;101374.63;;;4.81;70.20
35918;BME280;22011;59.912;30.300;2022-11-15T10:29:42;101376.91;;;4.85;70.79
35918;BME280;22011;59.912;30.300;2022-11-15T10:32:11;101386.03;;;4.81;71.06
35918;BME280;22011;59.912;30.300;2022-11-15T10:34:38;101389.22;;;4.74;70.45
35918;BME280;22011;59.912;30.300;2022-11-15T10:37:07;101394.41;;;4.75;70.16
35918;BME280;22011;59.912;30.300;2022-11-15T10:39:35;101393.56;;;4.75;70.57
35918;BME280;22011;59.912;30.300;2022-11-15T10:42:15;101396.41;;;4.96;72.39
35918;BME280;22011;59.912;30.300;2022-11-15T10:44:44;101404.84;;;4.77;71.17
35918;BME280;22011;59.912;30.300;2022-11-15T10:47:32;101391.00;;;4.97;71.22
35918;BME280;22011;59.912;30.300;2022-11-15T10:50:03;101400.19;;;4.80;70.11
35918;BME280;22011;59.912;30.300;2022-11-15T10:52:34;101399.94;;;4.83;70.03
35918;BME280;22011;59.912;30.300;2022-11-15T10:55:20;101398.25;;;4.82;70.64
35918;BME280;22011;59.912;30.300;2022-11-15T10:57:50;101408.00;;;4.82;70.34
35918;BME280;22011;59.912;30.300;2022-11-15T11:00:32;101406.25;;;4.93;70.61
35918;BME280;22011;59.912;30.300;2022-11-15T11:03:01;101406.97;;;4.72;70.76
35918;BME280;22011;59.912;30.300;2022-11-15T11:05:31;101423.53;;;4.74;71.33
35918;BME280;22011;59.912;30.300;2022-11-15T11:08:03;101419.00;;;4.76;70.95
35918;BME280;22011;59.912;30.300;2022-11-15T11:10:31;101423.25;;;4.66;71.38
35918;BME280;22011;59.912;30.300;2022-11-15T11:13:12;101420.34;;;4.81;72.20
35918;BME280;22011;59.912;30.300;2022-11-15T11:15:43;101422.91;;;4.70;72.09
35918;BME280;22011;59.912;30.300;2022-11-15T11:18:17;101426.41;;;4.71;71.14
35918;BME280;22011;59.912;30.300;2022-11-15T11:20:49;101427.03;;;4.74;70.94
35918;BME280;22011;59.912;30.300;2022-11-15T11:23:37;101423.38;;;4.88;70.94
35918;BME280;22011;59.912;30.300;2022-11-15T11:26:15;101426.81;;;4.77;70.76
35918;BME280;22011;59.912;30.300;2022-11-15T11:28:51;101434.22;;;4.72;70.66
35918;BME280;22011;59.912;30.300;2022-11-15T11:31:28;101432.31;;;4.74;70.39
35918;BME280;22011;59.912;30.300;2022-11-15T11:34:05;101430.72;;;4.72;70.90
35918;BME280;22011;59.912;30.300;2022-11-15T11:36:40;101429.94;;;4.58;69.92
35918;BME280;22011;59.912;30.300;2022-11-15T11:39:24;101432.31;;;4.74;70.83
35918;BME280;22011;59.912;30.300;2022-11-15T11:42:03;101440.66;;;4.68;70.32
35918;BME280;22011;59.912;30.300;2022-11-15T11:44:43;101443.31;;;4.68;70.27
35918;BME280;22011;59.912;30.300;2022-11-15T11:47:21;101439.09;;;4.66;70.39
35918;BME280;22011;59.912;30.300;2022-11-15T11:49:51;101436.78;;;4.61;70.16
35918;BME280;22011;59.912;30.300;2022-11-15T11:52:23;101441.84;;;4.64;70.54
35918;BME280;22011;59.912;30.300;2022-11-15T11:55:00;101450.50;;;4.66;71.36
35918;BME280;22011;59.912;30.300;2022-11-15T11:57:34;101448.81;;;4.65;71.33
35918;BME280;22011;59.912;30.300;2022-11-15T12:00:14;101452.19;;;4.67;71.82
35918;BME280;22011;59.912;30.300;2022-11-15T12:02:46;101449.25;;;4.59;70.88
35918;BME280;22011;59.912;30.300;2022-11-15T12:05:21;101460.75;;;4.58;71.35
35918;BME280;22011;59.912;30.300;2022-11-15T12:07:51;101458.66;;;4.50;71.80
35918;BME280;22011;59.912;30.300;2022-11-15T12:10:25;101461.94;;;4.54;72.21
35918;BME280;22011;59.912;30.300;2022-11-15T12:13:01;101459.41;;;4.52;72.10
35918;BME280;22011;59.912;30.300;2022-11-15T12:15:32;101457.50;;;4.54;71.52
35918;BME280;22011;59.912;30.300;2022-11-15T12:18:04;101457.81;;;4.50;70.47
35918;BME280;22011;59.912;30.300;2022-11-15T12:20:35;101457.81;;;4.50;70.43
35918;BME280;22011;59.912;30.300;2022-11-15T12:23:07;101463.31;;;4.47;70.77
35918;BME280;22011;59.912;30.300;2022-11-15T12:25:45;101470.56;;;4.56;71.72
35918;BME280;22011;59.912;30.300;2022-11-15T12:28:19;101471.00;;;4.50;71.69
35918;BME280;22011;59.912;30.300;2022-11-15T12:30:51;101468.88;;;4.55;71.15
35918;BME280;22011;59.912;30.300;2022-11-15T12:33:44;101461.56;;;4.71;71.79
35918;BME280;22011;59.912;30.300;2022-11-15T12:36:34;101459.97;;;4.69;72.01
35918;BME280;22011;59.912;30.300;2022-11-15T12:39:03;101465.63;;;4.51;71.43
35918;BME280;22011;59.912;30.300;2022-11-15T12:41:33;101465.72;;;4.50;71.48
35918;BME280;22011;59.912;30.300;2022-11-15T12:44:04;101468.25;;;4.51;71.30
35918;BME280;22011;59.912;30.300;2022-11-15T12:47:03;101461.06;;;4.66;71.90
35918;BME280;22011;59.912;30.300;2022-11-15T12:49:45;101468.56;;;4.59;71.64
35918;BME280;22011;59.912;30.300;2022-11-15T12:52:13;101467.34;;;4.40;71.10
35918;BME280;22011;59.912;30.300;2022-11-15T12:54:53;101472.47;;;4.54;72.44
35918;BME280;22011;59.912;30.300;2022-11-15T12:57:39;101468.44;;;4.61;72.51
35918;BME280;22011;59.912;30.300;2022-11-15T13:03:27;101475.56;;;4.84;71.91
35918;BME280;22011;59.912;30.300;2022-11-15T13:06:09;101477.84;;;4.65;71.81
35918;BME280;22011;59.912;30.300;2022-11-15T13:08:56;101475.88;;;4.43;71.23
35918;BME280;22011;59.912;30.300;2022-11-15T13:11:49;101478.06;;;4.62;72.18
35918;BME280;22011;59.912;30.300;2022-11-15T13:14:46;101480.47;;;4.65;72.25
35918;BME280;22011;59.912;30.300;2022-11-15T13:17:30;101483.34;;;4.62;71.69
35918;BME280;22011;59.912;30.300;2022-11-15T13:23:02;101494.44;;;4.54;70.90
35918;BME280;22011;59.912;30.300;2022-11-15T13:26:10;101501.81;;;4.62;71.89
35918;BME280;22011;59.912;30.300;2022-11-15T13:28:43;101511.44;;;4.50;72.17
35918;BME280;22011;59.912;30.300;2022-11-15T13:31:24;101509.09;;;4.58;72.89
35918;BME280;22011;59.912;30.300;2022-11-15T13:33:52;101513.56;;;4.45;71.52
35918;BME280;22011;59.912;30.300;2022-11-15T13:36:22;101519.69;;;4.46;71.49
35918;BME280;22011;59.912;30.300;2022-11-15T13:38:55;101516.72;;;4.50;71.79
35918;BME280;22011;59.912;30.300;2022-11-15T13:41:25;101513.88;;;4.41;71.49
35918;BME280;22011;59.912;30.300;2022-11-15T13:43:54;101524.94;;;4.46;72.05
35918;BME280;22011;59.912;30.300;2022-11-15T13:46:24;101532.88;;;4.46;72.46
35918;BME280;22011;59.912;30.300;2022-11-15T13:48:56;101524.44;;;4.41;70.75
35918;BME280;22011;59.912;30.300;2022-11-15T13:51:30;101530.22;;;4.46;71.32
35918;BME280;22011;59.912;30.300;2022-11-15T13:54:03;101535.50;;;4.46;69.78
35918;BME280;22011;59.912;30.300;2022-11-15T13:56:36;101533.41;;;4.38;70.13
35918;BME280;22011;59.912;30.300;2022-11-15T13:59:13;101532.13;;;4.44;69.98
35918;BME280;22011;59.912;30.300;2022-11-15T14:01:46;101535.41;;;4.47;69.92
35918;BME280;22011;59.912;30.300;2022-11-15T14:04:20;101535.41;;;4.47;69.88
35918;BME280;22011;59.912;30.300;2022-11-15T14:06:49;101537.94;;;4.49;69.28
35918;BME280;22011;59.912;30.300;2022-11-15T14:09:35;101539.28;;;4.67;69.77
35918;BME280;22011;59.912;30.300;2022-11-15T14:12:28;101546.56;;;4.64;70.10
35918;BME280;22011;59.912;30.300;2022-11-15T14:14:57;101556.84;;;4.43;70.15
35918;BME280;22011;59.912;30.300;2022-11-15T14:17:37;101551.53;;;4.55;69.98
35918;BME280;22011;59.912;30.300;2022-11-15T14:20:27;101558.63;;;4.55;70.46
35918;BME280;22011;59.912;30.300;2022-11-15T14:22:58;101575.63;;;4.38;69.95
35918;BME280;22011;59.912;30.300;2022-11-15T14:25:27;101567.59;;;4.40;69.94
35918;BME280;22011;59.912;30.300;2022-11-15T14:28:10;101563.91;;;4.55;69.90